sensor_id;sensor_type;location;lat;lon;timestamp;pressure;altitude;pressure_sealevel;temperature;humidity
9855;BME280;4966;48.112;9.282;2023-07-16T00:02:22;94634.41;;;20.48;100.00
9855;BME280;4966;48.112;9.282;2023-07-16T00:04:48;94635.19;;;20.48;100.00
9855;BME280;4966;48.112;9.282;2023-07-16T00:07:13;94640.28;;;20.60;100.00
9855;BME280;4966;48.112;9.282;2023-07-16T00:09:38;94653.25;;;20.74;100.00
9855;BME280;4966;48.112;9.282;2023-07-16T00:12:04;94656.75;;;20.82;100.00
9855;BME280;4966;48.112;9.282;2023-07-16T00:14:30;94661.75;;;21.01;100.00
9855;BME280;4966;48.112;9.282;2023-07-16T00:16:55;94664.16;;;20.96;100.00
9855;BME280;4966;48.112;9.282;2023-07-16T00:19:20;94673.38;;;20.78;100.00
9855;BME280;4966;48.112;9.282;2023-07-16T00:21:46;94672.50;;;20.89;100.00
9855;BME280;4966;48.112;9.282;2023-07-16T00:24:11;94665.34;;;20.95;100.00
9855;BME280;4966;48.112;9.282;2023-07-16T00:26:36;94673.25;;;20.96;100.00
9855;BME280;4966;48.112;9.282;2023-07-16T00:29:02;94655.22;;;20.74;100.00
9855;BME280;4966;48.112;9.282;2023-07-16T00:31:27;94675.44;;;20.53;100.00
9855;BME280;4966;48.112;9.282;2023-07-16T00:33:52;94682.00;;;20.84;100.00
9855;BME280;4966;48.112;9.282;2023-07-16T00:36:18;94703.38;;;20.73;100.00
9855;BME280;4966;48.112;9.282;2023-07-16T00:38:44;94709.63;;;20.88;100.00
9855;BME280;4966;48.112;9.282;2023-07-16T00:41:12;94697.47;;;20.74;100.00
9855;BME280;4966;48.112;9.282;2023-07-16T00:43:37;94692.09;;;20.31;100.00
9855;BME280;4966;48.112;9.282;2023-07-16T00:46:03;94701.56;;;20.34;100.00
9855;BME280;4966;48.112;9.282;2023-07-16T00:48:28;94686.16;;;20.40;100.00
9855;BME280;4966;48.112;9.282;2023-07-16T00:50:54;94690.50;;;20.30;100.00
9855;BME280;4966;48.112;9.282;2023-07-16T00:53:20;94696.94;;;19.98;97.48
9855;BME280;4966;48.112;9.282;2023-07-16T00:55:46;94701.31;;;19.42;96.98
9855;BME280;4966;48.112;9.282;2023-07-16T00:58:12;94717.03;;;19.63;98.25
9855;BME280;4966;48.112;9.282;2023-07-16T01:00:39;94743.44;;;19.25;97.11
9855;BME280;4966;48.112;9.282;2023-07-16T01:03:07;94749.34;;;19.16;97.71
9855;BME280;4966;48.112;9.282;2023-07-16T01:08:09;94685.94;;;19.34;95.99
9855;BME280;4966;48.112;9.282;2023-07-16T01:10:37;94687.91;;;19.16;97.21
9855;BME280;4966;48.112;9.282;2023-07-16T01:13:03;94701.66;;;18.90;100.00
9855;BME280;4966;48.112;9.282;2023-07-16T01:15:29;94713.88;;;18.97;99.30
9855;BME280;4966;48.112;9.282;2023-07-16T01:17:55;94699.28;;;18.85;98.32
9855;BME280;4966;48.112;9.282;2023-07-16T01:20:20;94685.06;;;18.76;94.91
9855;BME280;4966;48.112;9.282;2023-07-16T01:23:08;94676.06;;;18.97;95.82
9855;BME280;4966;48.112;9.282;2023-07-16T01:31:15;94678.03;;;19.00;95.46
9855;BME280;4966;48.112;9.282;2023-07-16T01:33:42;94671.34;;;19.08;95.38
9855;BME280;4966;48.112;9.282;2023-07-16T01:36:08;94678.81;;;19.15;95.21
9855;BME280;4966;48.112;9.282;2023-07-16T01:38:35;94678.84;;;19.19;94.99
9855;BME280;4966;48.112;9.282;2023-07-16T01:41:01;94670.97;;;19.31;95.78
9855;BME280;4966;48.112;9.282;2023-07-16T01:43:26;94666.22;;;19.36;96.90
9855;BME280;4966;48.112;9.282;2023-07-16T01:45:52;94662.69;;;19.46;96.36
9855;BME280;4966;48.112;9.282;2023-07-16T01:50:54;94671.75;;;19.71;97.20
9855;BME280;4966;48.112;9.282;2023-07-16T01:53:20;94674.91;;;19.73;97.42
9855;BME280;4966;48.112;9.282;2023-07-16T01:55:45;94675.66;;;19.77;97.72
9855;BME280;4966;48.112;9.282;2023-07-16T01:58:11;94681.59;;;19.44;99.63
9855;BME280;4966;48.112;9.282;2023-07-16T02:00:36;94686.69;;;19.56;99.04
9855;BME280;4966;48.112;9.282;2023-07-16T02:03:02;94695.41;;;19.33;99.72
9855;BME280;4966;48.112;9.282;2023-07-16T02:05:27;94698.16;;;19.26;99.52
9855;BME280;4966;48.112;9.282;2023-07-16T02:07:52;94702.03;;;18.96;100.00
9855;BME280;4966;48.112;9.282;2023-07-16T02:10:18;94704.06;;;19.21;100.00
9855;BME280;4966;48.112;9.282;2023-07-16T02:12:43;94698.16;;;19.47;99.28
9855;BME280;4966;48.112;9.282;2023-07-16T02:15:09;94696.97;;;19.73;97.81
9855;BME280;4966;48.112;9.282;2023-07-16T02:17:34;94704.84;;;19.82;97.12
9855;BME280;4966;48.112;9.282;2023-07-16T02:20:00;94711.94;;;19.87;96.14
9855;BME280;4966;48.112;9.282;2023-07-16T02:22:25;94724.19;;;19.68;96.69
9855;BME280;4966;48.112;9.282;2023-07-16T02:24:50;94720.25;;;19.69;97.75
9855;BME280;4966;48.112;9.282;2023-07-16T02:27:15;94729.31;;;19.51;97.97
9855;BME280;4966;48.112;9.282;2023-07-16T02:29:41;94726.53;;;19.62;97.76
9855;BME280;4966;48.112;9.282;2023-07-16T02:32:06;94733.25;;;19.72;98.24
9855;BME280;4966;48.112;9.282;2023-07-16T02:34:32;94725.75;;;19.83;97.72
9855;BME280;4966;48.112;9.282;2023-07-16T02:36:57;94729.69;;;19.86;98.16
9855;BME280;4966;48.112;9.282;2023-07-16T02:39:23;94735.19;;;19.89;98.08
9855;BME280;4966;48.112;9.282;2023-07-16T02:41:49;94744.28;;;19.83;97.30
9855;BME280;4966;48.112;9.282;2023-07-16T02:44:14;94757.28;;;19.75;97.63
9855;BME280;4966;48.112;9.282;2023-07-16T02:46:39;94763.59;;;19.93;97.03
9855;BME280;4966;48.112;9.282;2023-07-16T02:49:05;94764.78;;;19.89;97.47
9855;BME280;4966;48.112;9.282;2023-07-16T02:51:30;94778.19;;;19.72;98.53
9855;BME280;4966;48.112;9.282;2023-07-16T02:53:55;94797.50;;;19.72;98.65
9855;BME280;4966;48.112;9.282;2023-07-16T02:56:21;94785.31;;;19.81;98.23
9855;BME280;4966;48.112;9.282;2023-07-16T02:58:46;94787.63;;;19.57;98.77
9855;BME280;4966;48.112;9.282;2023-07-16T03:01:12;94793.13;;;19.43;100.00
9855;BME280;4966;48.112;9.282;2023-07-16T03:03:37;94790.81;;;19.81;99.03
9855;BME280;4966;48.112;9.282;2023-07-16T03:06:03;94799.50;;;19.86;99.44
9855;BME280;4966;48.112;9.282;2023-07-16T03:08:28;94795.53;;;19.84;98.11
9855;BME280;4966;48.112;9.282;2023-07-16T03:10:55;94778.59;;;19.82;98.66
9855;BME280;4966;48.112;9.282;2023-07-16T03:13:21;94776.63;;;19.86;99.17
9855;BME280;4966;48.112;9.282;2023-07-16T03:15:47;94764.38;;;19.87;99.57
9855;BME280;4966;48.112;9.282;2023-07-16T03:18:12;94780.16;;;19.79;99.44
9855;BME280;4966;48.112;9.282;2023-07-16T03:20:37;94778.88;;;19.08;100.00
9855;BME280;4966;48.112;9.282;2023-07-16T03:23:03;94782.09;;;19.64;100.00
9855;BME280;4966;48.112;9.282;2023-07-16T03:25:28;94783.28;;;19.38;100.00
9855;BME280;4966;48.112;9.282;2023-07-16T03:27:53;94789.19;;;19.47;100.00
9855;BME280;4966;48.112;9.282;2023-07-16T03:30:19;94783.25;;;19.42;100.00
9855;BME280;4966;48.112;9.282;2023-07-16T03:32:44;94777.34;;;19.25;100.00
9855;BME280;4966;48.112;9.282;2023-07-16T03:35:09;94778.13;;;19.29;100.00
9855;BME280;4966;48.112;9.282;2023-07-16T03:37:35;94774.97;;;19.42;100.00
9855;BME280;4966;48.112;9.282;2023-07-16T03:40:17;94782.47;;;19.23;100.00
9855;BME280;4966;48.112;9.282;2023-07-16T03:42:43;94796.56;;;18.97;100.00
9855;BME280;4966;48.112;9.282;2023-07-16T03:45:10;94794.88;;;18.74;100.00
9855;BME280;4966;48.112;9.282;2023-07-16T03:47:36;94789.81;;;18.83;100.00
9855;BME280;4966;48.112;9.282;2023-07-16T03:50:02;94806.97;;;18.55;100.00
9855;BME280;4966;48.112;9.282;2023-07-16T03:52:28;94818.41;;;18.54;100.00
9855;BME280;4966;48.112;9.282;2023-07-16T03:54:54;94808.34;;;18.86;100.00
9855;BME280;4966;48.112;9.282;2023-07-16T03:57:19;94803.59;;;18.80;100.00
9855;BME280;4966;48.112;9.282;2023-07-16T03:59:44;94806.97;;;18.55;100.00
9855;BME280;4966;48.112;9.282;2023-07-16T04:02:10;94809.63;;;18.30;100.00
9855;BME280;4966;48.112;9.282;2023-07-16T04:04:35;94810.47;;;18.45;100.00
9855;BME280;4966;48.112;9.282;2023-07-16T04:07:00;94814.34;;;18.33;100.00
9855;BME280;4966;48.112;9.282;2023-07-16T04:09:26;94808.66;;;18.70;100.00
9855;BME280;4966;48.112;9.282;2023-07-16T04:11:51;94809.91;;;18.84;100.00
9855;BME280;4966;48.112;9.282;2023-07-16T04:14:16;94827.38;;;18.43;100.00
9855;BME280;4966;48.112;9.282;2023-07-16T04:16:42;94832.06;;;18.32;100.00
9855;BME280;4966;48.112;9.282;2023-07-16T04:19:08;94840.78;;;17.90;100.00
9855;BME280;4966;48.112;9.282;2023-07-16T04:21:33;94844.78;;;17.99;100.00
9855;BME280;4966;48.112;9.282;2023-07-16T04:23:59;94845.16;;;17.98;100.00
9855;BME280;4966;48.112;9.282;2023-07-16T04:26:24;94854.81;;;17.77;100.00
9855;BME280;4966;48.112;9.282;2023-07-16T04:28:49;94864.19;;;17.73;100.00
9855;BME280;4966;48.112;9.282;2023-07-16T04:31:15;94855.25;;;17.42;100.00
9855;BME280;4966;48.112;9.282;2023-07-16T04:33:40;94826.31;;;17.55;100.00
9855;BME280;4966;48.112;9.282;2023-07-16T04:36:05;94834.25;;;17.64;100.00
9855;BME280;4966;48.112;9.282;2023-07-16T04:38:31;94857.28;;;17.49;100.00
9855;BME280;4966;48.112;9.282;2023-07-16T04:40:58;94860.75;;;17.42;100.00
9855;BME280;4966;48.112;9.282;2023-07-16T04:43:24;94860.75;;;17.38;100.00
9855;BME280;4966;48.112;9.282;2023-07-16T04:45:50;94868.50;;;17.33;100.00
9855;BME280;4966;48.112;9.282;2023-07-16T04:48:16;94863.50;;;17.42;100.00
9855;BME280;4966;48.112;9.282;2023-07-16T04:50:42;94872.19;;;17.44;100.00
9855;BME280;4966;48.112;9.282;2023-07-16T04:53:07;94874.31;;;17.61;100.00
9855;BME280;4966;48.112;9.282;2023-07-16T04:55:39;94877.47;;;17.63;100.00
9855;BME280;4966;48.112;9.282;2023-07-16T04:58:05;94877.59;;;17.37;100.00
9855;BME280;4966;48.112;9.282;2023-07-16T05:00:32;94868.63;;;17.81;100.00
9855;BME280;4966;48.112;9.282;2023-07-16T05:02:58;94878.31;;;17.68;100.00
9855;BME280;4966;48.112;9.282;2023-07-16T05:05:23;94875.06;;;17.96;100.00
9855;BME280;4966;48.112;9.282;2023-07-16T05:07:49;94883.97;;;17.44;100.00
9855;BME280;4966;48.112;9.282;2023-07-16T05:10:14;94882.69;;;17.76;100.00
9855;BME280;4966;48.112;9.282;2023-07-16T05:12:40;94896.13;;;17.81;100.00
9855;BME280;4966;48.112;9.282;2023-07-16T05:15:05;94904.72;;;17.76;100.00
9855;BME280;4966;48.112;9.282;2023-07-16T05:17:31;94908.50;;;17.60;100.00
9855;BME280;4966;48.112;9.282;2023-07-16T05:19:56;94918.41;;;18.06;100.00
9855;BME280;4966;48.112;9.282;2023-07-16T05:22:22;94910.06;;;17.61;100.00
9855;BME280;4966;48.112;9.282;2023-07-16T05:24:47;94914.16;;;17.75;100.00
9855;BME280;4966;48.112;9.282;2023-07-16T05:27:12;94924.28;;;17.67;100.00
9855;BME280;4966;48.112;9.282;2023-07-16T05:29:38;94907.69;;;17.97;100.00
9855;BME280;4966;48.112;9.282;2023-07-16T05:32:04;94905.00;;;18.04;100.00
9855;BME280;4966;48.112;9.282;2023-07-16T05:34:29;94908.56;;;17.68;100.00
9855;BME280;4966;48.112;9.282;2023-07-16T05:36:54;94895.91;;;17.97;100.00
9855;BME280;4966;48.112;9.282;2023-07-16T05:39:21;94898.94;;;17.88;100.00
9855;BME280;4966;48.112;9.282;2023-07-16T05:41:47;94901.59;;;17.77;100.00
9855;BME280;4966;48.112;9.282;2023-07-16T05:44:12;94899.34;;;17.87;100.00
9855;BME280;4966;48.112;9.282;2023-07-16T05:46:38;94892.31;;;17.93;100.00
9855;BME280;4966;48.112;9.282;2023-07-16T05:49:03;94898.41;;;18.13;100.00
9855;BME280;4966;48.112;9.282;2023-07-16T05:51:28;94897.84;;;18.44;100.00
9855;BME280;4966;48.112;9.282;2023-07-16T05:53:53;94895.75;;;18.27;100.00
9855;BME280;4966;48.112;9.282;2023-07-16T05:56:19;94887.66;;;18.48;99.56
9855;BME280;4966;48.112;9.282;2023-07-16T05:58:44;94888.25;;;18.83;99.80
9855;BME280;4966;48.112;9.282;2023-07-16T06:01:10;94899.94;;;18.65;98.63
9855;BME280;4966;48.112;9.282;2023-07-16T06:03:35;94911.25;;;18.49;100.00
9855;BME280;4966;48.112;9.282;2023-07-16T06:06:00;94908.59;;;18.09;100.00
9855;BME280;4966;48.112;9.282;2023-07-16T06:08:26;94911.38;;;18.16;100.00
9855;BME280;4966;48.112;9.282;2023-07-16T06:10:51;94923.28;;;18.27;100.00
9855;BME280;4966;48.112;9.282;2023-07-16T06:13:17;94924.28;;;18.60;98.66
9855;BME280;4966;48.112;9.282;2023-07-16T06:15:43;94918.88;;;18.15;98.94
9855;BME280;4966;48.112;9.282;2023-07-16T06:18:09;94914.78;;;18.46;98.01
9855;BME280;4966;48.112;9.282;2023-07-16T06:20:34;94921.63;;;18.15;100.00
9855;BME280;4966;48.112;9.282;2023-07-16T06:22:59;94952.78;;;17.82;100.00
9855;BME280;4966;48.112;9.282;2023-07-16T06:25:25;94941.56;;;18.01;100.00
9855;BME280;4966;48.112;9.282;2023-07-16T06:27:50;94937.63;;;18.02;100.00
9855;BME280;4966;48.112;9.282;2023-07-16T06:30:15;94918.81;;;18.08;100.00
9855;BME280;4966;48.112;9.282;2023-07-16T06:32:42;94927.38;;;17.99;100.00
9855;BME280;4966;48.112;9.282;2023-07-16T06:35:08;94931.53;;;17.82;100.00
9855;BME280;4966;48.112;9.282;2023-07-16T06:37:34;94919.88;;;17.59;100.00
9855;BME280;4966;48.112;9.282;2023-07-16T06:40:05;94922.06;;;17.80;100.00
9855;BME280;4966;48.112;9.282;2023-07-16T06:42:30;94922.63;;;17.59;100.00
9855;BME280;4966;48.112;9.282;2023-07-16T06:44:56;94919.53;;;18.01;100.00
9855;BME280;4966;48.112;9.282;2023-07-16T06:47:21;94900.56;;;18.41;100.00
9855;BME280;4966;48.112;9.282;2023-07-16T06:49:46;94899.91;;;18.06;100.00
9855;BME280;4966;48.112;9.282;2023-07-16T06:52:19;94901.56;;;18.18;100.00
9855;BME280;4966;48.112;9.282;2023-07-16T06:54:45;94903.44;;;18.07;100.00
9855;BME280;4966;48.112;9.282;2023-07-16T06:57:10;94894.72;;;18.53;98.21
9855;BME280;4966;48.112;9.282;2023-07-16T06:59:36;94899.53;;;18.63;99.30
9855;BME280;4966;48.112;9.282;2023-07-16T07:02:01;94898.13;;;18.87;97.65
9855;BME280;4966;48.112;9.282;2023-07-16T07:04:27;94904.59;;;18.58;98.13
9855;BME280;4966;48.112;9.282;2023-07-16T07:06:52;94908.59;;;18.67;97.76
9855;BME280;4966;48.112;9.282;2023-07-16T07:09:18;94896.31;;;19.20;97.72
9855;BME280;4966;48.112;9.282;2023-07-16T07:11:43;94895.88;;;19.11;96.32
9855;BME280;4966;48.112;9.282;2023-07-16T07:14:08;94887.16;;;19.02;95.56
9855;BME280;4966;48.112;9.282;2023-07-16T07:16:34;94892.41;;;18.59;99.67
9855;BME280;4966;48.112;9.282;2023-07-16T07:18:59;94877.22;;;18.83;94.19
9855;BME280;4966;48.112;9.282;2023-07-16T07:21:24;94874.59;;;18.42;96.32
9855;BME280;4966;48.112;9.282;2023-07-16T07:23:50;94874.97;;;18.40;97.44
9855;BME280;4966;48.112;9.282;2023-07-16T07:26:15;94895.09;;;18.44;99.80
9855;BME280;4966;48.112;9.282;2023-07-16T07:28:40;94896.69;;;18.49;100.00
9855;BME280;4966;48.112;9.282;2023-07-16T07:31:06;94904.03;;;18.86;100.00
9855;BME280;4966;48.112;9.282;2023-07-16T07:33:31;94910.59;;;18.74;97.41
9855;BME280;4966;48.112;9.282;2023-07-16T07:35:57;94912.22;;;18.75;95.86
9855;BME280;4966;48.112;9.282;2023-07-16T07:38:22;94919.78;;;18.85;95.11
9855;BME280;4966;48.112;9.282;2023-07-16T07:40:48;94925.16;;;18.71;94.22
9855;BME280;4966;48.112;9.282;2023-07-16T07:43:13;94922.13;;;18.83;94.82
9855;BME280;4966;48.112;9.282;2023-07-16T07:45:39;94907.44;;;19.45;94.61
9855;BME280;4966;48.112;9.282;2023-07-16T07:48:04;94911.69;;;19.28;89.45
9855;BME280;4966;48.112;9.282;2023-07-16T07:50:29;94907.34;;;19.27;88.90
9855;BME280;4966;48.112;9.282;2023-07-16T07:52:55;94906.97;;;19.25;90.43
9855;BME280;4966;48.112;9.282;2023-07-16T07:55:20;94913.28;;;19.26;88.83
9855;BME280;4966;48.112;9.282;2023-07-16T07:57:45;94913.50;;;18.96;89.39
9855;BME280;4966;48.112;9.282;2023-07-16T08:00:11;94914.38;;;19.07;88.14
9855;BME280;4966;48.112;9.282;2023-07-16T08:02:37;94907.72;;;19.22;89.20
9855;BME280;4966;48.112;9.282;2023-07-16T08:05:03;94907.31;;;19.13;81.32
9855;BME280;4966;48.112;9.282;2023-07-16T08:07:29;94921.91;;;19.24;84.46
9855;BME280;4966;48.112;9.282;2023-07-16T08:09:54;94918.88;;;19.58;81.91
9855;BME280;4966;48.112;9.282;2023-07-16T08:12:20;94916.97;;;19.69;79.67
9855;BME280;4966;48.112;9.282;2023-07-16T08:14:45;94911.13;;;20.03;77.39
9855;BME280;4966;48.112;9.282;2023-07-16T08:17:10;94910.69;;;19.94;81.61
9855;BME280;4966;48.112;9.282;2023-07-16T08:19:37;94909.13;;;20.47;75.11
9855;BME280;4966;48.112;9.282;2023-07-16T08:22:03;94908.38;;;20.43;77.82
9855;BME280;4966;48.112;9.282;2023-07-16T08:24:28;94915.84;;;20.81;76.17
9855;BME280;4966;48.112;9.282;2023-07-16T08:26:53;94911.72;;;21.33;73.85
9855;BME280;4966;48.112;9.282;2023-07-16T08:29:19;94913.91;;;20.28;80.74
9855;BME280;4966;48.112;9.282;2023-07-16T08:31:44;94913.88;;;20.46;75.12
9855;BME280;4966;48.112;9.282;2023-07-16T08:34:09;94913.03;;;21.03;75.08
9855;BME280;4966;48.112;9.282;2023-07-16T08:36:36;94911.31;;;21.45;71.54
9855;BME280;4966;48.112;9.282;2023-07-16T08:39:03;94912.19;;;21.13;67.74
9855;BME280;4966;48.112;9.282;2023-07-16T08:41:28;94901.44;;;22.11;65.46
9855;BME280;4966;48.112;9.282;2023-07-16T08:43:54;94910.59;;;22.04;69.13
9855;BME280;4966;48.112;9.282;2023-07-16T08:46:20;94908.44;;;22.29;66.33
9855;BME280;4966;48.112;9.282;2023-07-16T08:48:45;94903.09;;;22.94;62.17
9855;BME280;4966;48.112;9.282;2023-07-16T08:51:14;94901.22;;;23.22;61.21
9855;BME280;4966;48.112;9.282;2023-07-16T08:53:39;94900.72;;;22.93;63.24
9855;BME280;4966;48.112;9.282;2023-07-16T08:56:05;94897.91;;;23.34;60.93
9855;BME280;4966;48.112;9.282;2023-07-16T08:58:31;94897.34;;;22.75;63.31
9855;BME280;4966;48.112;9.282;2023-07-16T09:00:58;94907.84;;;22.94;60.81
9855;BME280;4966;48.112;9.282;2023-07-16T09:03:24;94899.81;;;23.07;63.83
9855;BME280;4966;48.112;9.282;2023-07-16T09:05:49;94911.06;;;23.61;59.34
9855;BME280;4966;48.112;9.282;2023-07-16T09:08:15;94912.63;;;23.93;57.79
9855;BME280;4966;48.112;9.282;2023-07-16T09:10:41;94905.31;;;23.45;59.16
9855;BME280;4966;48.112;9.282;2023-07-16T09:13:07;94907.69;;;23.77;58.21
9855;BME280;4966;48.112;9.282;2023-07-16T09:15:33;94903.91;;;23.94;59.35
9855;BME280;4966;48.112;9.282;2023-07-16T09:17:59;94913.75;;;22.96;59.85
9855;BME280;4966;48.112;9.282;2023-07-16T09:20:25;94920.13;;;23.65;58.51
9855;BME280;4966;48.112;9.282;2023-07-16T09:22:55;94915.91;;;23.53;56.37
9855;BME280;4966;48.112;9.282;2023-07-16T09:25:31;94903.13;;;24.17;61.07
9855;BME280;4966;48.112;9.282;2023-07-16T09:28:04;94912.16;;;23.36;60.60
9855;BME280;4966;48.112;9.282;2023-07-16T09:30:33;94912.91;;;23.41;60.14
9855;BME280;4966;48.112;9.282;2023-07-16T09:33:09;94918.22;;;23.28;60.36
9855;BME280;4966;48.112;9.282;2023-07-16T09:35:35;94911.75;;;23.38;61.52
9855;BME280;4966;48.112;9.282;2023-07-16T09:38:02;94913.47;;;22.87;59.49
9855;BME280;4966;48.112;9.282;2023-07-16T09:40:28;94922.53;;;22.91;58.25
9855;BME280;4966;48.112;9.282;2023-07-16T09:42:54;94926.25;;;22.77;59.50
9855;BME280;4966;48.112;9.282;2023-07-16T09:45:20;94928.22;;;22.77;59.91
9855;BME280;4966;48.112;9.282;2023-07-16T09:47:46;94920.28;;;22.79;58.42
9855;BME280;4966;48.112;9.282;2023-07-16T09:50:12;94913.63;;;22.72;60.98
9855;BME280;4966;48.112;9.282;2023-07-16T09:52:38;94917.56;;;23.82;59.86
9855;BME280;4966;48.112;9.282;2023-07-16T09:55:08;94901.19;;;24.65;57.46
9855;BME280;4966;48.112;9.282;2023-07-16T09:57:35;94890.78;;;24.46;55.56
9855;BME280;4966;48.112;9.282;2023-07-16T10:00:06;94888.09;;;24.15;53.61
9855;BME280;4966;48.112;9.282;2023-07-16T10:02:35;94889.16;;;24.72;56.58
9855;BME280;4966;48.112;9.282;2023-07-16T10:05:24;94892.25;;;24.54;53.99
9855;BME280;4966;48.112;9.282;2023-07-16T10:07:52;94897.03;;;25.20;52.76
9855;BME280;4966;48.112;9.282;2023-07-16T10:10:19;94890.91;;;25.29;53.97
9855;BME280;4966;48.112;9.282;2023-07-16T10:13:01;94889.03;;;25.22;53.27
9855;BME280;4966;48.112;9.282;2023-07-16T10:15:30;94895.03;;;24.54;54.33
9855;BME280;4966;48.112;9.282;2023-07-16T10:17:56;94891.00;;;24.31;53.82
9855;BME280;4966;48.112;9.282;2023-07-16T10:20:31;94892.69;;;24.02;53.37
9855;BME280;4966;48.112;9.282;2023-07-16T10:22:57;94908.06;;;24.06;53.93
9855;BME280;4966;48.112;9.282;2023-07-16T10:25:24;94892.03;;;23.90;53.64
9855;BME280;4966;48.112;9.282;2023-07-16T10:27:51;94882.06;;;23.93;55.16
9855;BME280;4966;48.112;9.282;2023-07-16T10:30:16;94887.91;;;23.71;53.76
9855;BME280;4966;48.112;9.282;2023-07-16T10:32:43;94890.41;;;23.93;55.57
9855;BME280;4966;48.112;9.282;2023-07-16T10:35:09;94906.31;;;23.58;53.52
9855;BME280;4966;48.112;9.282;2023-07-16T10:37:35;94904.34;;;23.59;56.15
9855;BME280;4966;48.112;9.282;2023-07-16T10:40:02;94892.41;;;23.92;55.55
9855;BME280;4966;48.112;9.282;2023-07-16T10:42:28;94887.75;;;24.36;53.79
9855;BME280;4966;48.112;9.282;2023-07-16T10:44:57;94898.75;;;24.44;53.87
9855;BME280;4966;48.112;9.282;2023-07-16T10:49:57;94906.31;;;24.43;52.94
9855;BME280;4966;48.112;9.282;2023-07-16T10:52:23;94899.25;;;25.29;52.46
9855;BME280;4966;48.112;9.282;2023-07-16T10:54:50;94898.44;;;25.88;49.32
9855;BME280;4966;48.112;9.282;2023-07-16T10:57:17;94893.75;;;26.02;49.93
9855;BME280;4966;48.112;9.282;2023-07-16T10:59:45;94891.84;;;26.48;47.04
9855;BME280;4966;48.112;9.282;2023-07-16T11:02:12;94899.94;;;26.09;46.99
9855;BME280;4966;48.112;9.282;2023-07-16T11:04:38;94895.19;;;25.34;48.13
9855;BME280;4966;48.112;9.282;2023-07-16T11:07:11;94894.16;;;26.37;48.12
9855;BME280;4966;48.112;9.282;2023-07-16T11:09:41;94889.69;;;26.23;47.73
9855;BME280;4966;48.112;9.282;2023-07-16T11:12:13;94878.38;;;26.30;48.63
9855;BME280;4966;48.112;9.282;2023-07-16T11:14:43;94881.47;;;28.84;41.39
9855;BME280;4966;48.112;9.282;2023-07-16T11:17:09;94891.25;;;30.92;39.68
9855;BME280;4966;48.112;9.282;2023-07-16T11:19:36;94896.22;;;29.54;40.89
9855;BME280;4966;48.112;9.282;2023-07-16T11:22:03;94891.63;;;28.05;43.88
9855;BME280;4966;48.112;9.282;2023-07-16T11:24:29;94891.63;;;26.75;45.88
9855;BME280;4966;48.112;9.282;2023-07-16T11:27:01;94893.91;;;25.95;46.77
9855;BME280;4966;48.112;9.282;2023-07-16T11:29:34;94886.28;;;26.81;44.76
9855;BME280;4966;48.112;9.282;2023-07-16T11:31:59;94877.84;;;26.51;45.58
9855;BME280;4966;48.112;9.282;2023-07-16T11:34:25;94870.59;;;27.16;46.96
9855;BME280;4966;48.112;9.282;2023-07-16T11:36:50;94870.78;;;27.09;46.98
9855;BME280;4966;48.112;9.282;2023-07-16T11:39:16;94870.47;;;28.04;44.88
9855;BME280;4966;48.112;9.282;2023-07-16T11:41:41;94870.91;;;28.28;42.01
9855;BME280;4966;48.112;9.282;2023-07-16T11:44:07;94863.31;;;28.03;44.03
9855;BME280;4966;48.112;9.282;2023-07-16T11:46:33;94861.50;;;28.60;42.82
9855;BME280;4966;48.112;9.282;2023-07-16T11:48:59;94862.81;;;29.03;44.87
9855;BME280;4966;48.112;9.282;2023-07-16T11:51:25;94878.03;;;29.81;40.19
9855;BME280;4966;48.112;9.282;2023-07-16T11:53:51;94868.97;;;29.11;41.42
9855;BME280;4966;48.112;9.282;2023-07-16T11:56:18;94861.00;;;30.97;38.38
9855;BME280;4966;48.112;9.282;2023-07-16T11:58:43;94873.06;;;30.16;39.01
9855;BME280;4966;48.112;9.282;2023-07-16T12:01:09;94868.66;;;29.75;40.89
9855;BME280;4966;48.112;9.282;2023-07-16T12:03:34;94868.97;;;30.39;39.02
9855;BME280;4966;48.112;9.282;2023-07-16T12:05:59;94866.59;;;28.74;42.62
9855;BME280;4966;48.112;9.282;2023-07-16T12:08:25;94858.22;;;28.74;42.88
9855;BME280;4966;48.112;9.282;2023-07-16T12:10:50;94863.03;;;29.31;43.00
9855;BME280;4966;48.112;9.282;2023-07-16T12:13:16;94858.53;;;28.76;42.24
9855;BME280;4966;48.112;9.282;2023-07-16T12:15:41;94852.56;;;28.01;45.01
9855;BME280;4966;48.112;9.282;2023-07-16T12:18:06;94857.34;;;28.39;42.85
9855;BME280;4966;48.112;9.282;2023-07-16T12:20:33;94849.50;;;29.51;40.48
9855;BME280;4966;48.112;9.282;2023-07-16T12:22:59;94848.59;;;29.85;40.33
9855;BME280;4966;48.112;9.282;2023-07-16T12:25:24;94850.53;;;28.88;40.97
9855;BME280;4966;48.112;9.282;2023-07-16T12:27:49;94845.03;;;29.85;39.49
9855;BME280;4966;48.112;9.282;2023-07-16T12:30:15;94850.66;;;29.63;38.87
9855;BME280;4966;48.112;9.282;2023-07-16T12:32:40;94858.34;;;30.34;38.66
9855;BME280;4966;48.112;9.282;2023-07-16T12:35:06;94849.38;;;30.17;38.80
9855;BME280;4966;48.112;9.282;2023-07-16T12:37:31;94857.59;;;28.45;42.54
9855;BME280;4966;48.112;9.282;2023-07-16T12:39:56;94858.03;;;30.01;38.94
9855;BME280;4966;48.112;9.282;2023-07-16T12:42:22;94855.94;;;30.73;39.08
9855;BME280;4966;48.112;9.282;2023-07-16T12:44:47;94851.31;;;32.14;36.54
9855;BME280;4966;48.112;9.282;2023-07-16T12:47:14;94859.66;;;31.99;37.26
9855;BME280;4966;48.112;9.282;2023-07-16T12:49:40;94846.28;;;31.29;36.60
9855;BME280;4966;48.112;9.282;2023-07-16T12:52:05;94849.56;;;30.72;37.89
9855;BME280;4966;48.112;9.282;2023-07-16T12:54:31;94847.91;;;31.91;38.20
9855;BME280;4966;48.112;9.282;2023-07-16T12:56:56;94845.66;;;33.43;33.32
9855;BME280;4966;48.112;9.282;2023-07-16T12:59:21;94836.84;;;33.12;32.52
9855;BME280;4966;48.112;9.282;2023-07-16T13:01:46;94829.34;;;33.92;31.32
9855;BME280;4966;48.112;9.282;2023-07-16T13:04:12;94823.81;;;36.08;31.50
9855;BME280;4966;48.112;9.282;2023-07-16T13:06:37;94824.44;;;38.26;26.79
9855;BME280;4966;48.112;9.282;2023-07-16T13:09:02;94826.41;;;37.41;26.92
9855;BME280;4966;48.112;9.282;2023-07-16T13:11:30;94832.44;;;38.33;26.11
9855;BME280;4966;48.112;9.282;2023-07-16T13:13:55;94827.50;;;37.66;26.84
9855;BME280;4966;48.112;9.282;2023-07-16T13:16:21;94832.94;;;38.60;25.37
9855;BME280;4966;48.112;9.282;2023-07-16T13:18:46;94826.13;;;39.61;23.12
9855;BME280;4966;48.112;9.282;2023-07-16T13:21:11;94823.09;;;39.94;23.96
9855;BME280;4966;48.112;9.282;2023-07-16T13:23:37;94819.38;;;40.35;23.07
9855;BME280;4966;48.112;9.282;2023-07-16T13:26:02;94816.38;;;41.64;23.77